createdAt,value
2022-12-05T00:00:01.771Z,127.8
2022-12-05T00:05:01.699Z,130.6
2022-12-05T00:10:01.517Z,138.2
2022-12-05T00:15:01.708Z,143.9
2022-12-05T00:20:03.110Z,144.0
2022-12-05T00:25:04.191Z,150.7
2022-12-05T00:35:01.638Z,161.6
2022-12-05T00:45:02.043Z,161.4
2022-12-05T00:50:01.531Z,170.0
2022-12-05T00:55:01.576Z,166.5
2022-12-05T01:00:01.421Z,167.7
2022-12-05T01:05:01.671Z,163.5
2022-12-05T01:10:02.575Z,162.6
2022-12-05T01:20:01.701Z,158.2
2022-12-05T01:25:01.923Z,155.9
2022-12-05T01:30:01.542Z,160.8
2022-12-05T01:35:01.545Z,163.0
2022-12-05T01:40:01.493Z,154.6
2022-12-05T01:50:01.556Z,152.6
2022-12-05T01:55:01.620Z,144.2
2022-12-05T02:05:01.644Z,145.2
2022-12-05T02:20:01.590Z,100.0
2022-12-05T02:25:01.869Z,120.5
2022-12-05T02:40:03.014Z,161.6
2022-12-05T02:50:06.692Z,159.2
2022-12-05T03:00:01.856Z,169.0
2022-12-05T03:05:01.856Z,172.0
2022-12-05T03:10:01.790Z,172.6
2022-12-05T03:20:01.937Z,180.6
2022-12-05T03:40:03.409Z,145.6
2022-12-05T03:50:01.775Z,141.4
2022-12-05T03:55:01.870Z,148.4
2022-12-05T04:00:02.033Z,159.6
2022-12-05T04:05:07.668Z,157.9
2022-12-05T04:10:01.991Z,153.0
2022-12-05T04:15:01.608Z,154.0
2022-12-05T04:20:02.005Z,161.4
2022-12-05T04:25:01.656Z,153.0
2022-12-05T04:35:01.584Z,161.2
2022-12-05T04:45:01.673Z,174.7
2022-12-05T04:50:06.453Z,182.2
2022-12-05T04:55:01.647Z,172.7
2022-12-05T05:05:02.822Z,178.7
2022-12-05T05:10:01.822Z,178.4
2022-12-05T05:15:01.693Z,178.6
2022-12-05T05:20:01.612Z,187.0
2022-12-05T05:30:01.645Z,179.0
2022-12-05T05:35:01.794Z,168.1
2022-12-05T05:40:11.400Z,158.0
2022-12-05T05:45:01.847Z,145.8
2022-12-05T05:55:01.994Z,131.0
2022-12-05T06:00:01.843Z,126.8
2022-12-05T06:05:01.637Z,124.6
2022-12-05T06:10:02.643Z,117.5
2022-12-05T06:15:02.760Z,112.5
2022-12-05T06:20:02.611Z,106.2
2022-12-05T06:25:01.936Z,103.9
2022-12-05T06:30:02.078Z,100.0
2022-12-05T06:40:01.761Z,107.6
2022-12-05T06:50:01.474Z,110.8
2022-12-05T06:55:01.681Z,111.6
2022-12-05T07:00:02.555Z,109.8
2022-12-05T07:05:06.563Z,103.6
2022-12-05T07:20:02.501Z,92.6
2022-12-05T07:50:01.924Z,84.7
2022-12-05T07:55:01.973Z,86.1
2022-12-05T08:05:02.346Z,81.7
2022-12-05T08:10:02.239Z,86.7
2022-12-05T08:20:01.955Z,84.4
2022-12-05T08:25:01.647Z,88.3
2022-12-05T08:35:07.148Z,92.0
2022-12-05T08:40:02.734Z,90.7
2022-12-05T08:50:01.648Z,98.0
2022-12-05T08:55:06.793Z,100.5
2022-12-05T09:10:01.872Z,101.3
2022-12-05T09:15:02.147Z,100.2
2022-12-05T09:20:02.456Z,102.4
2022-12-05T09:25:02.897Z,98.0
2022-12-05T09:30:01.582Z,99.3
2022-12-05T09:35:01.985Z,103.0
2022-12-05T09:40:01.843Z,102.9
2022-12-05T09:45:02.577Z,101.6
2022-12-05T10:00:01.897Z,90.6
2022-12-05T10:05:03.581Z,95.6
2022-12-05T10:20:02.183Z,133.0
2022-12-05T10:25:02.290Z,134.2
2022-12-05T10:40:07.365Z,118.9
2022-12-05T10:50:01.907Z,119.8
2022-12-05T10:55:02.047Z,124.5
2022-12-05T11:00:02.752Z,130.1
2022-12-05T11:10:06.899Z,102.2
2022-12-05T12:00:01.568Z,108.5
2022-12-05T12:20:03.498Z,79.0
2022-12-05T12:45:06.972Z,109.8
2022-12-05T13:00:02.236Z,91.4
2022-12-05T13:05:02.952Z,86.2
2022-12-05T13:20:06.450Z,85.6
2022-12-05T13:25:01.954Z,82.4
2022-12-05T13:30:02.676Z,82.1
2022-12-05T13:35:01.505Z,82.8
2022-12-05T13:40:03.117Z,84.2
2022-12-05T13:45:01.422Z,84.4
2022-12-05T13:50:06.758Z,83.7
2022-12-05T13:55:01.686Z,79.5
2022-12-05T14:00:02.639Z,73.7
2022-12-05T14:20:03.049Z,81.4
2022-12-05T14:25:01.407Z,85.0
2022-12-05T14:30:01.922Z,86.5
2022-12-05T14:50:03.741Z,76.4
2022-12-05T15:10:02.556Z,85.4
2022-12-05T15:15:06.371Z,88.3
2022-12-05T15:20:01.929Z,82.6
2022-12-05T15:25:06.765Z,85.0
2022-12-05T15:40:08.026Z,85.2
2022-12-05T15:45:04.052Z,80.7
2022-12-05T15:50:01.836Z,77.2
2022-12-05T15:55:01.900Z,83.7
2022-12-05T16:00:07.014Z,82.5
2022-12-05T16:05:06.843Z,77.5
2022-12-05T16:20:01.901Z,116.2
2022-12-05T16:25:01.595Z,118.0
2022-12-05T16:30:01.473Z,113.1
2022-12-05T16:35:01.478Z,109.0
2022-12-05T16:40:02.348Z,106.3
2022-12-05T16:45:02.659Z,104.2
2022-12-05T16:50:01.522Z,98.9
2022-12-05T17:10:06.605Z,118.2
2022-12-05T17:15:02.331Z,113.6
2022-12-05T17:20:01.176Z,108.0
2022-12-05T17:25:01.860Z,106.5
2022-12-05T17:30:02.004Z,108.2
2022-12-05T17:35:11.931Z,98.3
2022-12-05T17:40:01.792Z,92.8
2022-12-05T17:45:11.691Z,94.7
2022-12-05T17:50:06.638Z,87.5
2022-12-05T18:00:01.067Z,95.9
2022-12-05T18:05:01.588Z,102.6
2022-12-05T18:10:01.125Z,105.9
2022-12-05T18:15:01.835Z,103.6
2022-12-05T18:20:01.170Z,106.6
2022-12-05T18:25:07.124Z,110.2
2022-12-05T18:30:01.303Z,115.0
2022-12-05T18:35:02.741Z,117.7
2022-12-05T18:40:01.077Z,133.9
2022-12-05T18:45:02.130Z,138.2
2022-12-05T18:50:01.229Z,137.0
2022-12-05T19:00:01.082Z,128.8
2022-12-05T19:05:01.726Z,129.6
2022-12-05T19:10:01.209Z,125.5
2022-12-05T19:15:06.365Z,126.1
2022-12-05T19:20:01.356Z,126.7
2022-12-05T19:25:02.847Z,134.1
2022-12-05T19:30:10.933Z,133.8
2022-12-05T19:35:06.805Z,134.8
2022-12-05T19:40:01.833Z,132.8
2022-12-05T19:45:14.957Z,125.2
2022-12-05T19:50:01.862Z,121.0
2022-12-05T19:55:01.626Z,114.5
2022-12-05T20:00:01.881Z,112.8
2022-12-05T20:05:01.435Z,108.4
2022-12-05T20:10:01.868Z,106.9
2022-12-05T20:15:01.289Z,99.9
2022-12-05T20:20:01.793Z,98.0
2022-12-05T20:25:01.448Z,93.3
2022-12-05T20:30:06.806Z,97.8
2022-12-05T20:35:06.388Z,96.4
2022-12-05T20:40:06.582Z,99.2
2022-12-05T20:45:01.337Z,100.8
2022-12-05T20:50:02.771Z,105.1
2022-12-05T20:55:01.303Z,108.6
2022-12-05T21:00:02.096Z,112.6
2022-12-05T21:05:01.287Z,113.6
2022-12-05T21:15:01.184Z,109.1
2022-12-05T21:20:01.879Z,99.4
2022-12-05T21:25:01.311Z,97.8
2022-12-05T21:30:01.839Z,100.5
2022-12-05T21:35:01.306Z,99.9
2022-12-05T21:40:02.081Z,104.7
2022-12-05T21:45:01.558Z,106.7
2022-12-05T21:50:02.078Z,108.8
2022-12-05T21:55:01.128Z,108.8
2022-12-05T22:00:01.921Z,111.9
2022-12-05T22:05:01.665Z,112.3
2022-12-05T22:10:03.266Z,119.6
2022-12-05T22:15:06.341Z,127.4
2022-12-05T22:20:02.285Z,129.1
2022-12-05T22:25:02.109Z,131.8
2022-12-05T22:30:03.724Z,128.9
2022-12-05T22:35:05.747Z,123.9
2022-12-05T22:40:02.724Z,120.8
2022-12-05T22:45:06.340Z,124.4
2022-12-05T22:50:02.563Z,125.6
2022-12-05T22:55:06.304Z,132.1
2022-12-05T23:00:02.227Z,138.8
2022-12-05T23:05:01.423Z,138.3
2022-12-05T23:10:02.467Z,138.2
2022-12-05T23:15:01.336Z,139.6
2022-12-05T23:20:02.960Z,138.1
2022-12-05T23:25:01.273Z,132.9
2022-12-05T23:30:01.809Z,130.6
2022-12-05T23:35:06.236Z,115.3
2022-12-05T23:40:02.222Z,114.2
2022-12-05T23:45:01.663Z,115.3
2022-12-05T23:50:06.536Z,119.4
2022-12-05T23:55:06.176Z,126.1
